FBKE

Kasane Airport

Kasane, Botswana
METAR FBKE 230700Z 07009KT 9999 SCT010 FEW030CB SCT065 22/21 Q1014
Observed Flight Rules
Feb-23 @ 07:00 UTC (an hour ago) Visual Flight Rules
Wind Visibility Clouds
70° at 9 knots 10,000+ meters
  • Scattered at 1,000' AGL
  • Few at 3,000' AGL
  • Scattered at 6,500' AGL
Temperatures Readings
Current 22°C / 72°F
Dewpoint 21°C / 70°F
Humidity 94%
Altimeter 29.94" Hg
Pressure 1014 hPa
Elevation 1000
METAR FBKE 230700Z 07009KT 9999 SCT010 FEW030CB SCT065 22/21 Q1014
Observed Flight Rules
Feb-23 @ 07:00 UTC
(an hour ago)
VFR
Wind Visibility
70° at 9 knots 10,000+ meters
Clouds
  • Scattered at 1,000' AGL
  • Few at 3,000' AGL
  • Scattered at 6,500' AGL
Temperature Dewpoint
22°C / 72°F 21°C / 70°F
Humidity Altimeter Pressure
94% 29.94" Hg 1014 hPa